Terminal Aerodrome Forecast
Issued by NWS Northern Indiana

Home | Current Version | Previous Version | Graphics & Text | Print | Product List | Glossary On
Versions: 1 2 3 4 5 6 7 8 9 10 11 12 13 14 15 16
000
FTUS43 KIWX 272300
TAFFWA
TAF
KFWA 272320Z 2800/2824 24011KT 5SM -DZ BR OVC006
     FM280300 26010KT 6SM -RA BR BKN015
      TEMPO 2803/2807 3SM -SN BR OVC010
     FM280700 29010KT 6SM BR OVC015
     FM281000 32005KT P6SM BKN030
     FM282000 30007KT P6SM SCT030 BKN100=

USA.gov is the U.S. government's official web portal to all federal, state and local government web resources and services.